createdAt,value
2022-12-28T09:54:21.214Z,10.10
2022-12-28T09:58:42.925Z,10.48
2022-12-28T10:03:24.111Z,9.60
2022-12-28T10:07:40.443Z,9.82
2022-12-28T10:11:56.754Z,9.65
2022-12-28T10:16:19.482Z,10.10
2022-12-28T10:20:40.027Z,10.48
2022-12-28T10:24:56.379Z,10.75
2022-12-28T10:29:18.736Z,11.57
2022-12-28T10:33:42.926Z,12.02
2022-12-28T10:38:29.251Z,12.13
2022-12-28T10:42:50.429Z,12.45
2022-12-28T10:47:16.270Z,13.45
2022-12-28T10:51:33.018Z,13.50
2022-12-28T10:55:50.019Z,13.27
2022-12-28T11:00:23.124Z,12.57
2022-12-28T11:04:51.828Z,14.07
2022-12-28T11:09:14.057Z,13.10
2022-12-28T11:13:30.412Z,12.43
2022-12-28T11:17:52.385Z,13.25
2022-12-28T11:22:11.919Z,13.75
2022-12-28T11:26:31.518Z,13.18
2022-12-28T11:30:48.680Z,13.10
2022-12-28T11:35:05.648Z,13.00
2022-12-28T11:39:27.970Z,14.10
2022-12-28T11:43:53.143Z,13.90
2022-12-28T11:48:43.492Z,13.40
2022-12-28T11:52:59.856Z,9.27
2022-12-28T11:57:32.824Z,8.05
2022-12-28T12:01:51.030Z,6.80
2022-12-28T12:06:07.258Z,7.37
2022-12-28T12:10:36.671Z,6.68
2022-12-28T12:14:55.762Z,6.85
2022-12-28T12:19:28.705Z,7.50
2022-12-28T12:24:10.743Z,7.40
2022-12-28T12:28:33.058Z,10.77
2022-12-28T12:33:01.205Z,10.88
2022-12-28T12:37:37.548Z,10.95
2022-12-28T12:42:21.156Z,10.32
2022-12-28T12:47:05.645Z,11.30
2022-12-28T12:51:33.170Z,9.15
2022-12-28T12:56:07.355Z,9.95
2022-12-28T13:00:24.609Z,11.40
2022-12-28T13:04:46.297Z,12.43
2022-12-28T13:09:05.915Z,10.55
2022-12-28T13:13:44.525Z,11.95
2022-12-28T13:22:45.498Z,11.10
2022-12-28T13:27:03.320Z,9.75
2022-12-28T13:31:31.437Z,10.32
2022-12-28T13:35:47.763Z,10.48
2022-12-28T13:40:18.036Z,10.27
2022-12-28T13:44:41.555Z,9.85
2022-12-28T13:48:59.667Z,10.75
2022-12-28T13:53:21.143Z,12.30
2022-12-28T13:57:48.234Z,12.00
2022-12-28T14:02:06.690Z,10.30
2022-12-28T14:06:23.083Z,10.18
2022-12-28T14:10:39.934Z,14.98
2022-12-28T14:14:56.185Z,14.27
2022-12-28T14:19:13.207Z,16.05
2022-12-28T14:23:32.090Z,15.73
2022-12-28T14:28:01.001Z,15.02
2022-12-28T14:32:17.423Z,15.68
2022-12-28T14:36:41.880Z,16.50
2022-12-28T14:41:00.433Z,15.52
2022-12-28T14:46:08.032Z,11.05
2022-12-28T14:50:29.348Z,9.48
2022-12-28T14:54:50.749Z,8.77
2022-12-28T14:59:15.487Z,8.73
2022-12-28T15:03:48.008Z,7.37
2022-12-28T15:08:04.987Z,9.30
2022-12-28T15:12:22.241Z,8.30
2022-12-28T15:16:39.285Z,8.18
2022-12-28T15:20:55.686Z,12.00
2022-12-28T15:25:11.944Z,8.65
2022-12-28T15:29:47.904Z,7.62
2022-12-28T15:34:04.366Z,7.78
2022-12-28T15:38:20.563Z,12.32
2022-12-28T15:42:40.623Z,19.05
2022-12-28T15:46:57.254Z,22.05
2022-12-28T15:51:13.975Z,10.82
2022-12-28T15:55:31.498Z,10.93
2022-12-28T15:59:47.778Z,14.10
2022-12-28T16:04:04.487Z,12.43
2022-12-28T16:08:20.683Z,12.25
2022-12-28T16:12:38.865Z,8.60
2022-12-28T16:16:56.144Z,12.48
2022-12-28T16:21:13.309Z,11.25
2022-12-28T16:25:32.284Z,6.93
2022-12-28T16:29:53.940Z,5.35
2022-12-28T16:34:15.906Z,5.40
2022-12-28T16:38:32.308Z,5.68
2022-12-28T16:42:49.603Z,5.68
2022-12-28T16:47:06.796Z,5.45
2022-12-28T16:51:23.068Z,5.40
2022-12-28T16:55:45.853Z,5.30
2022-12-28T17:00:02.165Z,5.68
2022-12-28T17:04:18.508Z,5.87
2022-12-28T17:08:37.933Z,6.05
2022-12-28T17:12:54.430Z,5.37
2022-12-28T17:17:10.609Z,5.60
2022-12-28T17:21:27.525Z,5.18
2022-12-28T17:25:43.767Z,5.20
2022-12-28T17:30:00.173Z,5.25
2022-12-28T17:34:16.491Z,5.75
2022-12-28T17:38:32.687Z,5.75
2022-12-28T17:42:49.113Z,7.12
2022-12-28T17:47:05.528Z,7.40
2022-12-28T17:51:24.034Z,7.12
2022-12-28T17:55:40.317Z,6.85
2022-12-28T17:59:58.803Z,6.97
2022-12-28T18:04:15.666Z,7.53
2022-12-28T18:08:32.852Z,7.55
2022-12-28T18:12:50.279Z,7.68
2022-12-28T18:17:06.623Z,6.95
2022-12-28T18:21:26.155Z,6.40
2022-12-28T18:25:42.441Z,6.80
2022-12-28T18:29:58.723Z,6.57
2022-12-28T18:34:15.009Z,5.95
2022-12-28T18:38:31.751Z,6.12
2022-12-28T18:42:50.160Z,6.37
2022-12-28T18:47:06.831Z,6.30
2022-12-28T18:51:23.006Z,7.45
2022-12-28T18:55:42.546Z,7.55
2022-12-28T19:00:02.246Z,7.28
2022-12-28T19:04:19.011Z,7.68
2022-12-28T19:08:39.344Z,8.32
2022-12-28T19:12:57.115Z,8.52
2022-12-28T19:17:13.268Z,8.80
2022-12-28T19:21:36.252Z,8.20
2022-12-28T19:25:54.778Z,8.55
2022-12-28T19:30:13.851Z,9.13
2022-12-28T19:34:30.097Z,9.52
2022-12-28T19:38:48.367Z,8.35
2022-12-28T19:43:04.580Z,8.35
2022-12-28T19:47:20.819Z,8.45
2022-12-28T19:51:37.213Z,8.65
2022-12-28T19:55:58.806Z,8.88
2022-12-28T20:00:15.784Z,8.27
2022-12-28T20:04:32.050Z,9.00
2022-12-28T20:08:49.986Z,8.55
2022-12-28T20:13:06.193Z,11.15
2022-12-28T20:17:23.035Z,12.00
2022-12-28T20:21:42.065Z,10.88
2022-12-28T20:25:58.681Z,9.88
2022-12-28T20:30:15.025Z,9.63
2022-12-28T20:34:31.401Z,9.57
2022-12-28T20:38:47.916Z,11.88
2022-12-28T20:43:23.035Z,15.10
2022-12-28T20:47:39.317Z,15.35
2022-12-28T20:51:55.785Z,15.75
2022-12-28T20:56:15.210Z,14.90
2022-12-28T21:00:31.510Z,11.07
2022-12-28T21:04:47.820Z,13.27
2022-12-28T21:09:04.446Z,10.20
2022-12-28T21:13:20.805Z,9.80
2022-12-28T21:17:37.051Z,10.70
2022-12-28T21:21:53.272Z,10.13
2022-12-28T21:26:16.146Z,10.55
2022-12-28T21:30:32.420Z,11.82
2022-12-28T21:34:48.804Z,10.93
2022-12-28T21:39:05.237Z,11.35
2022-12-28T21:43:21.382Z,12.65
2022-12-28T21:47:37.728Z,14.30
2022-12-28T21:51:59.662Z,15.07
2022-12-28T21:56:16.000Z,14.35
2022-12-28T22:00:50.527Z,13.52
2022-12-28T22:05:25.968Z,12.57
2022-12-28T22:10:01.258Z,12.30
2022-12-28T22:14:17.489Z,12.55
2022-12-28T22:23:10.077Z,12.82
2022-12-28T22:27:26.296Z,12.93
2022-12-28T22:31:42.620Z,12.13
2022-12-28T22:36:07.947Z,12.90
2022-12-28T22:40:24.211Z,11.82
2022-12-28T22:44:40.416Z,13.35
2022-12-28T22:48:56.731Z,13.73
2022-12-28T22:53:12.967Z,11.88
2022-12-28T22:57:29.346Z,12.65
2022-12-28T23:01:48.425Z,15.20
2022-12-28T23:06:06.499Z,16.70
2022-12-28T23:10:22.689Z,17.40
2022-12-28T23:14:57.294Z,17.00
2022-12-28T23:19:34.412Z,16.70
2022-12-28T23:24:13.555Z,15.93
2022-12-28T23:28:30.154Z,12.68
2022-12-28T23:32:51.448Z,14.95
2022-12-28T23:37:07.609Z,13.13
2022-12-28T23:41:42.210Z,16.90
2022-12-28T23:45:58.456Z,14.63
2022-12-28T23:50:16.742Z,16.30
2022-12-28T23:54:33.015Z,16.42
2022-12-28T23:58:54.603Z,17.05
